createdAt,value
2022-12-01T00:01:20.858Z,1.10
2022-12-01T00:03:47.809Z,1.45
2022-12-01T00:06:20.534Z,1.33
2022-12-01T00:09:09.150Z,1.20
2022-12-01T00:11:37.844Z,1.67
2022-12-01T00:14:05.393Z,1.17
2022-12-01T00:16:33.393Z,1.45
2022-12-01T00:19:00.486Z,2.17
2022-12-01T00:21:27.802Z,1.35
2022-12-01T00:23:56.842Z,1.70
2022-12-01T00:26:24.879Z,1.27
2022-12-01T00:28:53.539Z,0.70
2022-12-01T00:31:20.934Z,0.98
2022-12-01T00:33:48.219Z,1.58
2022-12-01T00:36:15.360Z,5.53
2022-12-01T00:38:42.412Z,2.78
2022-12-01T00:41:09.568Z,1.60
2022-12-01T00:43:36.620Z,1.25
2022-12-01T00:46:04.044Z,1.55
2022-12-01T00:48:31.041Z,2.40
2022-12-01T00:50:57.902Z,0.93
2022-12-01T01:04:59.934Z,1.40
2022-12-01T01:07:27.012Z,2.33
2022-12-01T01:09:54.135Z,3.45
2022-12-01T01:12:21.081Z,1.42
2022-12-01T01:14:48.021Z,1.30
2022-12-01T01:17:14.895Z,0.95
2022-12-01T01:19:41.809Z,1.58
2022-12-01T01:22:08.882Z,1.42
2022-12-01T01:24:35.910Z,0.35
2022-12-01T01:27:03.002Z,5.15
2022-12-01T01:29:29.897Z,0.55
2022-12-01T01:31:56.941Z,3.22
2022-12-01T01:34:24.044Z,1.00
2022-12-01T01:36:51.094Z,0.75
2022-12-01T01:39:20.559Z,2.72
2022-12-01T01:41:47.901Z,1.38
2022-12-01T01:44:50.582Z,0.40
2022-12-01T01:47:39.570Z,0.75
2022-12-01T01:50:13.735Z,2.75
2022-12-01T01:52:47.403Z,4.07
2022-12-01T01:55:15.415Z,1.23
2022-12-01T01:57:43.616Z,1.10
2022-12-01T02:00:13.995Z,2.17
2022-12-01T02:02:46.649Z,0.95
2022-12-01T02:05:24.755Z,1.35
2022-12-01T02:07:55.240Z,1.77
2022-12-01T02:10:30.071Z,1.13
2022-12-01T02:13:13.478Z,2.72
2022-12-01T02:16:12.795Z,5.38
2022-12-01T02:19:00.555Z,2.42
2022-12-01T02:21:55.261Z,0.43
2022-12-01T02:24:33.894Z,1.52
2022-12-01T02:27:31.578Z,1.83
2022-12-01T02:30:25.928Z,0.90
2022-12-01T02:33:15.072Z,4.03
2022-12-01T02:35:48.336Z,1.75
2022-12-01T02:38:32.700Z,1.27
2022-12-01T02:41:30.461Z,2.17
2022-12-01T02:44:16.054Z,1.65
2022-12-01T02:46:52.772Z,1.00
2022-12-01T02:49:25.596Z,1.70
2022-12-01T02:51:56.211Z,1.60
2022-12-01T02:54:24.406Z,1.48
2022-12-01T02:56:54.221Z,3.10
2022-12-01T02:59:21.140Z,2.30
2022-12-01T03:02:10.989Z,1.60
2022-12-01T03:04:56.447Z,1.50
2022-12-01T03:07:56.543Z,4.35
2022-12-01T03:10:47.342Z,0.75
2022-12-01T03:13:26.157Z,0.68
2022-12-01T03:16:05.460Z,1.23
2022-12-01T03:18:38.796Z,1.77
2022-12-01T03:21:32.537Z,1.73
2022-12-01T03:24:05.654Z,2.05
2022-12-01T03:26:35.478Z,1.60
2022-12-01T03:29:10.690Z,4.15
2022-12-01T03:31:43.415Z,1.67
2022-12-01T03:34:16.707Z,1.33
2022-12-01T03:36:49.743Z,1.38
2022-12-01T03:39:23.913Z,2.28
2022-12-01T03:41:56.671Z,0.98
2022-12-01T03:44:27.648Z,4.68
2022-12-01T03:46:59.538Z,1.45
2022-12-01T03:49:27.066Z,3.55
2022-12-01T03:52:00.144Z,34.30
2022-12-01T03:54:55.439Z,4.28
2022-12-01T03:57:44.852Z,1.75
2022-12-01T04:00:14.022Z,1.80
2022-12-01T04:02:41.803Z,6.85
2022-12-01T04:05:11.904Z,1.00
2022-12-01T04:07:40.897Z,2.60
2022-12-01T04:10:08.604Z,2.17
2022-12-01T04:12:35.807Z,3.88
2022-12-01T04:15:10.148Z,2.95
2022-12-01T04:17:37.524Z,4.72
2022-12-01T04:20:06.678Z,3.35
2022-12-01T04:22:34.115Z,1.13
2022-12-01T04:25:01.070Z,2.30
2022-12-01T04:27:28.171Z,2.40
2022-12-01T04:29:55.147Z,5.95
2022-12-01T04:32:22.126Z,3.58
2022-12-01T04:34:49.085Z,1.88
2022-12-01T04:37:18.161Z,2.05
2022-12-01T04:39:45.204Z,0.80
2022-12-01T04:42:12.085Z,1.27
2022-12-01T04:44:38.959Z,3.08
2022-12-01T04:47:06.943Z,1.35
2022-12-01T04:49:35.249Z,1.92
2022-12-01T04:52:02.081Z,1.15
2022-12-01T04:54:29.117Z,2.70
2022-12-01T04:56:59.487Z,2.25
2022-12-01T04:59:26.516Z,1.98
2022-12-01T05:01:53.655Z,2.90
2022-12-01T05:04:20.609Z,1.10
2022-12-01T05:06:47.575Z,2.17
2022-12-01T05:09:21.383Z,5.03
2022-12-01T05:11:48.399Z,0.93
2022-12-01T05:14:15.366Z,8.68
2022-12-01T05:16:42.642Z,8.38
2022-12-01T05:19:28.537Z,2.63
2022-12-01T05:21:55.431Z,0.55
2022-12-01T05:24:22.831Z,1.75
2022-12-01T05:26:49.708Z,4.20
2022-12-01T05:29:16.679Z,0.85
2022-12-01T05:31:45.454Z,3.97
2022-12-01T05:34:16.726Z,1.80
2022-12-01T05:36:43.499Z,3.88
2022-12-01T05:39:10.321Z,1.83
2022-12-01T05:41:37.490Z,2.03
2022-12-01T05:44:12.155Z,1.23
2022-12-01T05:46:38.968Z,2.42
2022-12-01T05:49:06.441Z,10.98
2022-12-01T05:51:33.376Z,3.08
2022-12-01T05:54:05.117Z,2.33
2022-12-01T05:56:32.258Z,1.77
2022-12-01T05:58:59.204Z,1.30
2022-12-01T06:01:26.202Z,2.50
2022-12-01T06:03:54.428Z,3.88
2022-12-01T06:06:26.923Z,1.60
2022-12-01T06:08:53.921Z,1.45
2022-12-01T06:11:21.290Z,1.88
2022-12-01T06:13:48.158Z,1.40
2022-12-01T06:16:15.108Z,1.60
2022-12-01T06:18:46.089Z,1.13
2022-12-01T06:21:13.140Z,2.90
2022-12-01T06:23:40.131Z,2.33
2022-12-01T06:26:06.887Z,1.45
2022-12-01T06:28:33.938Z,1.25
2022-12-01T06:31:03.575Z,3.03
2022-12-01T06:33:33.748Z,12.95
2022-12-01T06:36:05.441Z,1.90
2022-12-01T06:38:36.761Z,1.58
2022-12-01T06:41:04.112Z,3.15
2022-12-01T06:43:31.030Z,1.17
2022-12-01T06:46:01.557Z,2.00
2022-12-01T06:48:29.493Z,8.02
2022-12-01T06:51:01.418Z,1.40
2022-12-01T06:53:29.107Z,4.95
2022-12-01T06:56:05.267Z,1.38
2022-12-01T07:00:59.967Z,2.55
2022-12-01T07:03:27.183Z,3.20
2022-12-01T07:06:02.284Z,3.55
2022-12-01T07:08:30.867Z,1.35
2022-12-01T07:11:09.396Z,1.52
2022-12-01T07:13:36.520Z,1.30
2022-12-01T07:16:05.898Z,4.32
2022-12-01T07:18:38.742Z,1.75
2022-12-01T07:21:08.758Z,1.67
2022-12-01T07:23:40.682Z,1.33
2022-12-01T07:26:19.090Z,2.90
2022-12-01T07:28:46.283Z,1.80
2022-12-01T07:31:16.029Z,1.25
2022-12-01T07:33:43.502Z,2.33
2022-12-01T07:36:15.796Z,6.28
2022-12-01T07:38:42.710Z,1.65
2022-12-01T07:41:19.549Z,2.58
2022-12-01T07:43:47.820Z,0.70
2022-12-01T07:46:27.168Z,1.48
2022-12-01T07:48:55.525Z,0.82
2022-12-01T07:51:34.267Z,2.25
2022-12-01T07:54:14.487Z,5.97
2022-12-01T07:56:41.625Z,1.63
2022-12-01T07:59:14.780Z,3.28
2022-12-01T08:01:44.717Z,0.85
2022-12-01T08:04:12.315Z,2.45
2022-12-01T08:06:45.147Z,4.20
2022-12-01T08:09:12.338Z,5.80
2022-12-01T08:11:39.305Z,0.50
2022-12-01T08:14:06.248Z,1.40
2022-12-01T08:16:33.136Z,1.25
2022-12-01T08:19:04.072Z,2.20
2022-12-01T08:21:31.028Z,1.55
2022-12-01T08:23:58.756Z,2.33
2022-12-01T08:26:27.011Z,3.40
2022-12-01T08:28:55.454Z,0.77
2022-12-01T08:31:31.523Z,4.72
2022-12-01T08:33:58.987Z,1.63
2022-12-01T08:36:31.267Z,2.30
2022-12-01T08:38:58.234Z,1.33
2022-12-01T08:41:25.332Z,1.73
2022-12-01T08:44:01.133Z,1.38
2022-12-01T08:46:31.912Z,1.20
2022-12-01T08:48:59.038Z,0.90
2022-12-01T08:51:33.655Z,0.65
2022-12-01T08:54:01.109Z,3.13
2022-12-01T08:56:38.504Z,1.48
2022-12-01T08:59:05.996Z,4.22
2022-12-01T09:01:33.552Z,1.35
2022-12-01T09:04:06.664Z,2.13
2022-12-01T09:06:46.234Z,2.88
2022-12-01T09:09:16.550Z,1.17
2022-12-01T09:11:44.242Z,2.42
2022-12-01T09:14:17.299Z,2.03
2022-12-01T09:16:46.470Z,2.33
2022-12-01T09:19:19.194Z,1.15
2022-12-01T09:21:50.664Z,1.02
2022-12-01T09:24:17.712Z,1.02
2022-12-01T09:26:47.403Z,2.13
2022-12-01T09:29:17.736Z,1.75
2022-12-01T09:31:45.041Z,1.98
2022-12-01T09:34:15.370Z,3.45
2022-12-01T09:36:49.991Z,5.25
2022-12-01T09:39:20.821Z,1.52
2022-12-01T09:42:09.526Z,1.58
2022-12-01T09:44:51.231Z,2.83
2022-12-01T09:47:30.778Z,1.02
2022-12-01T09:50:24.126Z,3.20
2022-12-01T09:53:03.485Z,0.88
2022-12-01T09:55:39.582Z,1.00
2022-12-01T09:58:22.353Z,1.13
2022-12-01T10:00:55.817Z,1.80
2022-12-01T10:03:26.322Z,1.75
2022-12-01T10:09:26.539Z,1.23
2022-12-01T10:12:04.482Z,1.27
2022-12-01T10:14:37.043Z,2.85
2022-12-01T10:17:26.451Z,1.65
2022-12-01T10:20:11.643Z,1.17
2022-12-01T10:23:01.537Z,1.15
2022-12-01T10:25:39.451Z,3.22
2022-12-01T10:28:33.754Z,2.10
2022-12-01T10:31:42.460Z,1.10
2022-12-01T10:34:20.953Z,1.80
2022-12-01T10:36:48.015Z,1.02
2022-12-01T10:39:26.123Z,4.95
2022-12-01T10:41:56.043Z,0.75
2022-12-01T10:44:23.050Z,1.13
2022-12-01T10:46:56.526Z,0.98
2022-12-01T10:49:38.519Z,2.50
2022-12-01T10:52:05.926Z,1.75
2022-12-01T10:54:41.405Z,1.85
2022-12-01T10:57:20.781Z,0.88
2022-12-01T11:00:00.129Z,0.77
2022-12-01T11:02:29.574Z,3.95
2022-12-01T11:05:20.403Z,3.70
2022-12-01T11:07:48.380Z,1.25
2022-12-01T11:10:19.743Z,0.90
2022-12-01T11:13:22.511Z,2.92
2022-12-01T11:15:58.478Z,0.85
2022-12-01T11:18:28.424Z,1.15
2022-12-01T11:21:07.913Z,2.55
2022-12-01T11:23:57.145Z,2.40
2022-12-01T11:26:25.746Z,0.80
2022-12-01T11:29:21.766Z,1.92
2022-12-01T11:31:57.818Z,1.48
2022-12-01T11:34:27.859Z,1.48
2022-12-01T11:37:07.314Z,1.75
2022-12-01T11:39:40.590Z,1.88
2022-12-01T11:42:14.270Z,2.15
2022-12-01T11:44:52.863Z,1.95
2022-12-01T11:47:25.493Z,1.17
2022-12-01T11:50:00.881Z,3.15
2022-12-01T11:52:45.292Z,1.42
2022-12-01T11:55:16.320Z,0.85
2022-12-01T11:57:45.716Z,2.45
2022-12-01T12:00:26.152Z,2.08
2022-12-01T12:03:15.773Z,2.28
2022-12-01T12:06:18.180Z,1.77
2022-12-01T12:09:03.422Z,3.95
2022-12-01T12:11:30.364Z,1.95
2022-12-01T12:14:22.672Z,0.82
2022-12-01T12:17:05.855Z,4.03
2022-12-01T12:20:13.704Z,2.95
2022-12-01T12:25:47.168Z,0.35
2022-12-01T12:28:22.724Z,1.30
2022-12-01T12:31:17.636Z,31.03
2022-12-01T12:34:12.586Z,27.25
2022-12-01T12:37:07.066Z,25.70
2022-12-01T12:39:52.964Z,27.20
2022-12-01T12:42:55.148Z,25.25
2022-12-01T12:45:32.375Z,30.58
2022-12-01T12:48:30.220Z,26.30
2022-12-01T12:51:24.186Z,28.65
2022-12-01T12:54:18.315Z,27.02
2022-12-01T12:56:57.595Z,27.63
2022-12-01T12:59:50.682Z,25.65
2022-12-01T13:02:45.330Z,26.55
2022-12-01T13:05:56.086Z,30.40
2022-12-01T13:08:40.046Z,26.23
2022-12-01T13:11:26.830Z,25.70
2022-12-01T13:14:20.178Z,25.88
2022-12-01T13:16:50.513Z,31.25
2022-12-01T13:19:38.982Z,32.30
2022-12-01T13:22:07.698Z,29.75
2022-12-01T13:24:34.829Z,33.22
2022-12-01T13:27:10.169Z,27.42
2022-12-01T13:29:43.873Z,30.23
2022-12-01T13:32:35.292Z,28.08
2022-12-01T13:35:26.802Z,27.92
2022-12-01T13:37:55.416Z,26.63
2022-12-01T13:40:30.090Z,26.00
2022-12-01T13:43:23.608Z,30.77
2022-12-01T13:45:51.664Z,27.80
2022-12-01T13:48:53.784Z,27.27
2022-12-01T13:51:24.891Z,28.10
2022-12-01T13:54:27.912Z,26.05
2022-12-01T13:57:10.877Z,30.42
2022-12-01T14:00:07.076Z,28.60
2022-12-01T14:02:35.886Z,28.20
2022-12-01T14:05:24.564Z,25.20
2022-12-01T14:07:53.653Z,29.17
2022-12-01T14:10:31.274Z,26.30
2022-12-01T14:13:05.484Z,28.05
2022-12-01T14:15:43.443Z,28.00
2022-12-01T14:18:51.508Z,25.60
2022-12-01T14:21:45.852Z,24.83
2022-12-01T14:24:42.256Z,24.20
2022-12-01T14:27:11.920Z,25.52
2022-12-01T14:29:46.413Z,27.15
2022-12-01T14:32:16.275Z,26.15
2022-12-01T14:34:43.309Z,22.40
2022-12-01T14:37:16.615Z,21.52
2022-12-01T14:40:17.510Z,22.33
2022-12-01T14:43:08.330Z,23.58
2022-12-01T14:45:46.933Z,26.48
2022-12-01T14:48:20.298Z,24.30
2022-12-01T14:51:03.595Z,22.63
2022-12-01T14:53:33.943Z,22.15
2022-12-01T14:56:44.153Z,22.98
2022-12-01T14:59:24.291Z,21.98
2022-12-01T15:01:53.640Z,21.65
2022-12-01T15:04:20.654Z,26.55
2022-12-01T15:06:53.372Z,23.58
2022-12-01T15:09:37.228Z,21.40
2022-12-01T15:12:07.855Z,24.98
2022-12-01T15:14:38.027Z,24.25
2022-12-01T15:17:06.900Z,22.70
2022-12-01T15:19:40.216Z,26.42
2022-12-01T15:22:10.206Z,24.80
2022-12-01T15:24:37.149Z,24.38
2022-12-01T15:27:04.424Z,23.88
2022-12-01T15:29:44.785Z,24.05
2022-12-01T15:32:17.274Z,29.58
2022-12-01T15:34:52.134Z,23.10
2022-12-01T15:37:23.164Z,24.38
2022-12-01T15:40:11.966Z,24.58
2022-12-01T15:42:44.686Z,25.50
2022-12-01T15:45:19.528Z,23.98
2022-12-01T15:47:48.776Z,27.35
2022-12-01T15:50:31.380Z,27.85
2022-12-01T15:53:17.980Z,28.33
2022-12-01T15:55:48.560Z,28.70
2022-12-01T15:58:24.759Z,27.08
2022-12-01T16:01:01.801Z,26.65
2022-12-01T16:03:29.430Z,28.85
2022-12-01T16:05:57.361Z,27.80
2022-12-01T16:08:27.852Z,25.08
2022-12-01T16:11:17.753Z,30.52
2022-12-01T16:14:02.243Z,25.85
2022-12-01T16:16:40.363Z,24.92
2022-12-01T16:19:10.078Z,29.27
2022-12-01T16:22:05.107Z,28.08
2022-12-01T16:24:51.102Z,22.88
2022-12-01T16:27:27.455Z,29.30
2022-12-01T16:30:19.627Z,26.70
2022-12-01T16:32:49.363Z,25.98
2022-12-01T16:35:26.531Z,27.77
2022-12-01T16:37:54.920Z,26.65
2022-12-01T16:40:22.023Z,24.08
2022-12-01T16:42:50.076Z,26.25
2022-12-01T16:45:19.012Z,25.83
2022-12-01T16:47:47.904Z,23.10
2022-12-01T16:50:17.024Z,26.17
2022-12-01T16:52:45.540Z,24.80
2022-12-01T16:55:37.580Z,23.83
2022-12-01T16:58:04.834Z,24.85
2022-12-01T17:00:31.999Z,24.30
2022-12-01T17:02:59.199Z,27.38
2022-12-01T17:05:26.246Z,23.60
2022-12-01T17:07:53.668Z,24.83
2022-12-01T17:10:21.899Z,26.85
2022-12-01T17:12:49.193Z,25.75
2022-12-01T17:15:16.173Z,25.55
2022-12-01T17:17:43.250Z,26.52
2022-12-01T17:20:10.874Z,26.73
2022-12-01T17:22:38.109Z,25.23
2022-12-01T17:25:05.695Z,26.55
2022-12-01T17:27:32.916Z,27.63
2022-12-01T17:30:00.211Z,29.25
2022-12-01T17:32:27.679Z,23.67
2022-12-01T17:34:55.162Z,27.88
2022-12-01T17:37:22.222Z,31.58
2022-12-01T17:39:50.234Z,27.98
2022-12-01T17:42:17.314Z,27.35
2022-12-01T17:44:44.232Z,28.38
2022-12-01T17:47:11.611Z,28.38
2022-12-01T17:49:38.659Z,29.00
2022-12-01T17:52:06.792Z,30.05
2022-12-01T17:54:33.782Z,33.33
2022-12-01T17:57:00.678Z,32.88
2022-12-01T17:59:27.692Z,32.75
